Time;durP1;ratioP1;P1;durP2;ratioP2;P2;SDS_P1;SDS_P2;PMS_P1;PMS_P2;Temp;Humidity;BMP_temperature;BMP_pressure;BME280_temperature;BME280_humidity;BME280_pressure;Samples;Min_cycle;Max_cycle;Signal;HPM_P1;HPM_P2
2023/05/17 00:00:08;;;;;;;0.00;0.00;;;;;;;;;;4973275;28;20050;-82
2023/05/17 00:02:34;;;;;;;0.00;0.00;;;;;;;;;;4974663;28;20530;-81
2023/05/17 00:05:00;;;;;;;0.00;0.00;;;;;;;;;;4973045;28;20406;-82
2023/05/17 00:07:26;;;;;;;0.00;0.00;;;;;;;;;;4972936;28;20122;-82
2023/05/17 00:09:52;;;;;;;0.00;0.00;;;;;;;;;;4974287;28;20037;-82
2023/05/17 00:12:18;;;;;;;0.00;0.00;;;;;;;;;;4974194;28;20042;-81
2023/05/17 00:14:44;;;;;;;0.00;0.00;;;;;;;;;;4973081;28;20583;-82
2023/05/17 00:17:10;;;;;;;0.00;0.00;;;;;;;;;;4974246;28;20150;-82
2023/05/17 00:19:36;;;;;;;0.00;0.00;;;;;;;;;;4974150;28;20210;-82
2023/05/17 00:22:02;;;;;;;0.00;0.00;;;;;;;;;;4956397;28;20202;-82
2023/05/17 00:24:28;;;;;;;0.00;0.00;;;;;;;;;;4972749;28;20191;-82
2023/05/17 00:26:54;;;;;;;0.00;0.00;;;;;;;;;;4956162;28;20614;-82
2023/05/17 00:29:20;;;;;;;0.00;0.00;;;;;;;;;;4972968;28;20054;-83
2023/05/17 00:31:46;;;;;;;0.00;0.00;;;;;;;;;;4973801;28;20174;-83
2023/05/17 00:34:12;;;;;;;0.00;0.00;;;;;;;;;;4974065;28;20086;-82
2023/05/17 00:36:38;;;;;;;0.00;0.00;;;;;;;;;;4973692;28;20134;-82
2023/05/17 00:39:04;;;;;;;0.00;0.00;;;;;;;;;;4972550;28;20351;-82
2023/05/17 00:41:30;;;;;;;0.00;0.00;;;;;;;;;;4973779;28;20039;-82
2023/05/17 00:43:56;;;;;;;0.00;0.00;;;;;;;;;;4972835;28;20039;-83
2023/05/17 00:46:22;;;;;;;0.00;0.00;;;;;;;;;;4972669;28;20386;-83
2023/05/17 00:48:48;;;;;;;0.00;0.00;;;;;;;;;;4972490;28;20043;-82
2023/05/17 00:51:15;;;;;;;0.00;0.00;;;;;;;;;;4973272;28;20043;-82
2023/05/17 00:53:41;;;;;;;0.00;0.00;;;;;;;;;;4973910;28;20050;-82
2023/05/17 00:56:08;;;;;;;0.00;0.00;;;;;;;;;;4972151;28;20057;-82
2023/05/17 00:58:34;;;;;;;0.00;0.00;;;;;;;;;;4972369;28;20439;-82
2023/05/17 01:01:01;;;;;;;0.00;0.00;;;;;;;;;;4973533;28;20505;-82
2023/05/17 01:03:27;;;;;;;0.00;0.00;;;;;;;;;;4972204;28;20050;-82
2023/05/17 01:05:53;;;;;;;0.00;0.00;;;;;;;;;;4971983;28;20479;-83
2023/05/17 01:08:19;;;;;;;0.00;0.00;;;;;;;;;;4972458;28;20097;-82
2023/05/17 01:10:45;;;;;;;0.00;0.00;;;;;;;;;;4972948;28;20046;-82
2023/05/17 01:13:18;;;;;;;0.00;0.00;;;;;;;;;;4972255;28;20146;-82
2023/05/17 01:15:53;;;;;;;0.00;0.00;;;;;;;;;;4973330;28;20054;-82
2023/05/17 01:18:33;;;;;;;0.00;0.00;;;;;;;;;;4972959;28;20497;-82
2023/05/17 01:21:00;;;;;;;0.00;0.00;;;;;;;;;;4971826;28;20126;-82
2023/05/17 01:23:29;;;;;;;0.00;0.00;;;;;;;;;;4972058;28;20053;-82
2023/05/17 01:26:07;;;;;;;0.00;0.00;;;;;;;;;;4973246;28;20383;-82
2023/05/17 01:28:33;;;;;;;0.00;0.00;;;;;;;;;;4971925;28;20046;-82
2023/05/17 01:31:01;;;;;;;0.00;0.00;;;;;;;;;;4972109;28;20057;-82
2023/05/17 01:33:27;;;;;;;0.00;0.00;;;;;;;;;;4972222;28;20065;-82
2023/05/17 01:35:53;;;;;;;0.00;0.00;;;;;;;;;;4971897;28;20042;-82
2023/05/17 01:38:19;;;;;;;0.00;0.00;;;;;;;;;;4973350;28;20367;-82
2023/05/17 01:40:48;;;;;;;0.00;0.00;;;;;;;;;;4975340;28;20370;-82
2023/05/17 01:43:22;;;;;;;0.00;0.00;;;;;;;;;;4975287;28;20035;-82
2023/05/17 01:46:08;;;;;;;0.00;0.00;;;;;;;;;;4959891;28;20489;-82
2023/05/17 01:48:36;;;;;;;0.00;0.00;;;;;;;;;;4937130;28;20490;-82
2023/05/17 01:51:03;;;;;;;0.00;0.00;;;;;;;;;;4975450;28;20081;-82
2023/05/17 01:53:35;;;;;;;0.00;0.00;;;;;;;;;;4976712;28;20051;-82
2023/05/17 01:56:08;;;;;;;0.00;0.00;;;;;;;;;;4976730;28;20479;-82
2023/05/17 01:58:36;;;;;;;0.00;0.00;;;;;;;;;;4976652;28;20042;-82
2023/05/17 02:01:03;;;;;;;0.00;0.00;;;;;;;;;;4975455;28;20125;-82
2023/05/17 02:03:29;;;;;;;0.00;0.00;;;;;;;;;;4976270;28;20402;-82
2023/05/17 02:05:55;;;;;;;0.00;0.00;;;;;;;;;;4975323;28;20058;-82
2023/05/17 02:08:21;;;;;;;0.00;0.00;;;;;;;;;;4975072;28;20398;-82
2023/05/17 02:10:47;;;;;;;0.00;0.00;;;;;;;;;;4975128;28;20133;-82
2023/05/17 02:13:13;;;;;;;0.70;0.20;;;;;;;;;;4976284;28;20047;-82
2023/05/17 02:15:39;;;;;;;0.00;0.00;;;;;;;;;;4976604;28;20043;-82
2023/05/17 02:18:05;;;;;;;0.00;0.00;;;;;;;;;;4976367;28;20050;-82
2023/05/17 02:20:31;;;;;;;0.00;0.00;;;;;;;;;;4975291;28;20042;-83
2023/05/17 02:22:57;;;;;;;0.00;0.00;;;;;;;;;;4974807;28;20486;-82
2023/05/17 02:25:23;;;;;;;0.00;0.00;;;;;;;;;;4976386;28;20114;-82
2023/05/17 02:27:49;;;;;;;0.00;0.00;;;;;;;;;;4976195;28;20046;-82
2023/05/17 02:30:16;;;;;;;0.00;0.00;;;;;;;;;;4976111;28;20078;-82
2023/05/17 02:32:42;;;;;;;0.00;0.00;;;;;;;;;;4974830;28;20074;-82
2023/05/17 02:35:08;;;;;;;0.00;0.00;;;;;;;;;;4976285;28;20106;-82
2023/05/17 02:37:34;;;;;;;0.00;0.00;;;;;;;;;;4974677;28;20046;-82
2023/05/17 02:40:00;;;;;;;0.00;0.00;;;;;;;;;;4974951;28;20185;-82
2023/05/17 02:42:26;;;;;;;0.00;0.00;;;;;;;;;;4975701;28;20454;-82
2023/05/17 02:44:55;;;;;;;0.00;0.00;;;;;;;;;;4976022;28;20045;-82
2023/05/17 02:47:21;;;;;;;0.00;0.00;;;;;;;;;;4974417;28;20494;-82
2023/05/17 02:49:47;;;;;;;0.00;0.00;;;;;;;;;;4975654;28;20074;-83
2023/05/17 02:52:14;;;;;;;0.00;0.00;;;;;;;;;;4974284;28;20447;-82
2023/05/17 02:54:42;;;;;;;0.00;0.00;;;;;;;;;;4974572;28;20152;-82
2023/05/17 02:57:08;;;;;;;0.00;0.00;;;;;;;;;;4974406;28;20122;-82
2023/05/17 02:59:35;;;;;;;0.00;0.00;;;;;;;;;;4974416;28;20056;-82
2023/05/17 03:02:01;;;;;;;0.00;0.00;;;;;;;;;;4974039;28;20054;-82
2023/05/17 03:04:27;;;;;;;0.00;0.00;;;;;;;;;;4974157;28;20059;-82
2023/05/17 03:06:54;;;;;;;0.00;0.00;;;;;;;;;;4975163;28;20093;-82
2023/05/17 03:09:20;;;;;;;0.00;0.00;;;;;;;;;;4975890;28;20611;-82
2023/05/17 03:11:46;;;;;;;0.00;0.00;;;;;;;;;;4975495;28;20082;-82
2023/05/17 03:14:12;;;;;;;0.00;0.00;;;;;;;;;;4975422;28;20127;-82
2023/05/17 03:16:38;;;;;;;0.00;0.00;;;;;;;;;;4974324;28;20338;-82
2023/05/17 03:19:04;;;;;;;0.00;0.00;;;;;;;;;;4973700;28;20125;-82
2023/05/17 03:21:30;;;;;;;0.00;0.00;;;;;;;;;;4973931;28;20062;-83
2023/05/17 03:23:57;;;;;;;0.00;0.00;;;;;;;;;;4975184;28;20068;-82
2023/05/17 03:26:23;;;;;;;0.00;0.00;;;;;;;;;;4974169;28;20050;-82
2023/05/17 03:28:50;;;;;;;0.00;0.00;;;;;;;;;;4973909;28;20379;-82
2023/05/17 03:31:16;;;;;;;0.00;0.00;;;;;;;;;;4974802;28;20118;-82
2023/05/17 03:33:42;;;;;;;0.00;0.00;;;;;;;;;;4957456;28;20039;-83
2023/05/17 03:36:08;;;;;;;0.00;0.00;;;;;;;;;;4973699;28;20049;-82
2023/05/17 03:38:34;;;;;;;0.00;0.00;;;;;;;;;;4974869;28;20125;-82
2023/05/17 03:41:00;;;;;;;0.00;0.00;;;;;;;;;;4973674;28;20046;-82
2023/05/17 03:43:27;;;;;;;0.00;0.00;;;;;;;;;;4973554;28;20375;-82
2023/05/17 03:45:53;;;;;;;0.00;0.00;;;;;;;;;;4973457;28;20487;-82
2023/05/17 03:48:19;;;;;;;0.00;0.00;;;;;;;;;;4973355;28;20133;-83
2023/05/17 03:50:45;;;;;;;0.00;0.00;;;;;;;;;;4973386;28;20125;-82
2023/05/17 03:53:11;;;;;;;0.00;0.00;;;;;;;;;;4973434;28;20177;-82
2023/05/17 03:55:37;;;;;;;0.00;0.00;;;;;;;;;;4957361;28;20051;-82
2023/05/17 03:58:03;;;;;;;0.00;0.00;;;;;;;;;;4973338;28;20050;-81
2023/05/17 04:00:29;;;;;;;0.00;0.00;;;;;;;;;;4974537;28;20498;-82
2023/05/17 04:02:55;;;;;;;0.00;0.00;;;;;;;;;;4956263;28;20046;-82
2023/05/17 04:05:21;;;;;;;0.00;0.00;;;;;;;;;;4974802;28;20049;-82
2023/05/17 04:07:47;;;;;;;0.00;0.00;;;;;;;;;;4974415;28;20442;-82
2023/05/17 04:10:13;;;;;;;0.00;0.00;;;;;;;;;;4974334;28;20078;-82
2023/05/17 04:12:39;;;;;;;0.00;0.00;;;;;;;;;;4972819;28;20038;-83
2023/05/17 04:15:05;;;;;;;0.00;0.00;;;;;;;;;;4973067;28;20054;-82
2023/05/17 04:17:31;;;;;;;0.00;0.00;;;;;;;;;;4957202;28;20142;-82
2023/05/17 04:19:57;;;;;;;0.00;0.00;;;;;;;;;;4973004;28;20050;-82
2023/05/17 04:22:23;;;;;;;0.00;0.00;;;;;;;;;;4972913;28;20458;-82
2023/05/17 04:24:50;;;;;;;0.00;0.00;;;;;;;;;;4972774;28;20042;-82
2023/05/17 04:27:16;;;;;;;0.00;0.00;;;;;;;;;;4974019;28;20491;-82
2023/05/17 04:29:42;;;;;;;0.00;0.00;;;;;;;;;;4972520;28;20051;-82
2023/05/17 04:32:08;;;;;;;0.00;0.00;;;;;;;;;;4972983;28;20494;-82
2023/05/17 04:34:35;;;;;;;0.00;0.00;;;;;;;;;;4972739;28;20463;-82
2023/05/17 04:37:01;;;;;;;0.00;0.00;;;;;;;;;;4974252;28;20058;-82
2023/05/17 04:39:27;;;;;;;0.00;0.00;;;;;;;;;;4972733;28;20050;-82
2023/05/17 04:41:53;;;;;;;0.00;0.00;;;;;;;;;;4974214;28;20049;-82
2023/05/17 04:44:19;;;;;;;0.00;0.00;;;;;;;;;;4973769;28;20447;-82
2023/05/17 04:46:45;;;;;;;0.00;0.00;;;;;;;;;;4974173;28;20053;-82
2023/05/17 04:49:11;;;;;;;0.00;0.00;;;;;;;;;;4972390;28;20049;-82
2023/05/17 04:51:37;;;;;;;0.00;0.00;;;;;;;;;;4973976;28;20042;-81
2023/05/17 04:54:05;;;;;;;0.00;0.00;;;;;;;;;;4956646;28;20073;-82
2023/05/17 04:56:31;;;;;;;0.00;0.00;;;;;;;;;;4957602;28;20134;-82
2023/05/17 04:58:57;;;;;;;0.00;0.00;;;;;;;;;;4972934;28;20042;-82
2023/05/17 05:01:23;;;;;;;0.00;0.00;;;;;;;;;;4974465;28;20483;-82
2023/05/17 05:03:49;;;;;;;0.00;0.00;;;;;;;;;;4974384;28;20213;-82
2023/05/17 05:06:15;;;;;;;0.00;0.00;;;;;;;;;;4973045;28;20051;-81
2023/05/17 05:08:41;;;;;;;0.00;0.00;;;;;;;;;;4972946;28;20055;-81
2023/05/17 05:11:07;;;;;;;0.00;0.00;;;;;;;;;;4972577;28;20478;-82
2023/05/17 05:13:36;;;;;;;0.00;0.00;;;;;;;;;;4973717;28;20051;-82
2023/05/17 05:16:03;;;;;;;0.00;0.00;;;;;;;;;;4978527;28;20150;-81
2023/05/17 05:18:29;;;;;;;0.00;0.00;;;;;;;;;;4976380;28;20047;-81
2023/05/17 05:20:55;;;;;;;0.00;0.00;;;;;;;;;;4977494;28;20181;-82
2023/05/17 05:23:21;;;;;;;0.00;0.00;;;;;;;;;;4976458;28;20043;-82
2023/05/17 05:25:47;;;;;;;0.00;0.00;;;;;;;;;;4977613;28;20050;-81
2023/05/17 05:28:14;;;;;;;0.00;0.00;;;;;;;;;;4975989;28;20500;-82
2023/05/17 05:30:39;;;;;;;0.00;0.00;;;;;;;;;;4977473;28;20046;-82
2023/05/17 05:33:05;;;;;;;0.00;0.00;;;;;;;;;;4976096;28;20126;-81
2023/05/17 05:35:31;;;;;;;0.00;0.00;;;;;;;;;;4975831;28;20047;-82
2023/05/17 05:37:58;;;;;;;0.00;0.00;;;;;;;;;;4976460;28;20057;-82
2023/05/17 05:40:24;;;;;;;0.00;0.00;;;;;;;;;;4975816;28;20051;-82
2023/05/17 05:42:50;;;;;;;0.00;0.00;;;;;;;;;;4976067;28;20042;-82
2023/05/17 05:45:16;;;;;;;0.00;0.00;;;;;;;;;;4975884;28;20046;-82
2023/05/17 05:47:42;;;;;;;0.00;0.00;;;;;;;;;;4977164;28;20043;-82
2023/05/17 05:50:08;;;;;;;0.00;0.00;;;;;;;;;;4975416;28;20106;-82
2023/05/17 05:52:34;;;;;;;0.00;0.00;;;;;;;;;;4977109;28;20050;-82
2023/05/17 05:55:00;;;;;;;0.00;0.00;;;;;;;;;;4975512;28;20039;-82
2023/05/17 05:57:26;;;;;;;0.00;0.00;;;;;;;;;;4975558;28;20031;-82
2023/05/17 05:59:52;;;;;;;0.00;0.00;;;;;;;;;;4975934;28;20507;-83
2023/05/17 06:02:18;;;;;;;0.00;0.00;;;;;;;;;;4976809;28;20478;-80
2023/05/17 06:04:46;;;;;;;0.00;0.00;;;;;;;;;;4976352;28;20054;-81
2023/05/17 06:07:12;;;;;;;0.00;0.00;;;;;;;;;;4975799;28;20058;-81
2023/05/17 06:09:38;;;;;;;0.00;0.00;;;;;;;;;;4976396;28;20038;-81
2023/05/17 06:12:04;;;;;;;0.00;0.00;;;;;;;;;;4975490;28;20057;-80
2023/05/17 06:14:30;;;;;;;0.00;0.00;;;;;;;;;;4976503;28;20049;-80
2023/05/17 06:16:56;;;;;;;0.00;0.00;;;;;;;;;;4975187;28;20042;-81
2023/05/17 06:19:22;;;;;;;0.00;0.00;;;;;;;;;;4976223;28;20513;-81
2023/05/17 06:21:48;;;;;;;0.00;0.00;;;;;;;;;;4959147;28;20065;-80
2023/05/17 06:24:15;;;;;;;0.00;0.00;;;;;;;;;;4974891;28;20042;-80
2023/05/17 06:26:42;;;;;;;0.00;0.00;;;;;;;;;;4975869;28;20074;-81
2023/05/17 06:29:08;;;;;;;0.00;0.00;;;;;;;;;;4975968;28;20047;-80
2023/05/17 06:31:34;;;;;;;0.00;0.00;;;;;;;;;;4976385;28;20140;-81
2023/05/17 06:34:00;;;;;;;0.00;0.00;;;;;;;;;;4975930;28;20074;-81
2023/05/17 06:36:27;;;;;;;0.00;0.00;;;;;;;;;;4976130;28;20541;-81
2023/05/17 06:38:53;;;;;;;0.00;0.00;;;;;;;;;;4976088;28;20045;-82
2023/05/17 06:41:19;;;;;;;0.00;0.00;;;;;;;;;;4974858;28;20053;-82
2023/05/17 06:43:45;;;;;;;0.00;0.00;;;;;;;;;;4976056;28;20042;-81
2023/05/17 06:46:11;;;;;;;0.00;0.00;;;;;;;;;;4974676;28;20047;-81
2023/05/17 06:48:39;;;;;;;0.00;0.00;;;;;;;;;;4974594;28;20038;-81
2023/05/17 06:51:05;;;;;;;0.00;0.00;;;;;;;;;;4975735;28;20101;-81
2023/05/17 06:53:31;;;;;;;0.00;0.00;;;;;;;;;;4975951;28;20038;-81
2023/05/17 06:55:57;;;;;;;0.00;0.00;;;;;;;;;;4975803;28;20544;-81
2023/05/17 06:58:23;;;;;;;0.00;0.00;;;;;;;;;;4974719;28;20057;-81
2023/05/17 07:00:49;;;;;;;0.00;0.00;;;;;;;;;;4974229;28;20090;-81
2023/05/17 07:03:15;;;;;;;0.00;0.00;;;;;;;;;;4975581;28;20050;-82
2023/05/17 07:05:41;;;;;;;0.00;0.00;;;;;;;;;;4975465;28;20170;-81
2023/05/17 07:08:07;;;;;;;0.00;0.00;;;;;;;;;;4974615;28;20117;-81
2023/05/17 07:10:33;;;;;;;0.00;0.00;;;;;;;;;;4973985;28;20462;-81
2023/05/17 07:12:59;;;;;;;0.00;0.00;;;;;;;;;;4975506;28;20081;-81
2023/05/17 07:15:25;;;;;;;0.00;0.00;;;;;;;;;;4974006;28;20391;-81
2023/05/17 07:17:51;;;;;;;0.00;0.00;;;;;;;;;;4974177;28;20058;-81
2023/05/17 07:20:17;;;;;;;0.00;0.00;;;;;;;;;;4975210;28;20038;-81
2023/05/17 07:22:43;;;;;;;0.00;0.00;;;;;;;;;;4975320;28;20035;-81
2023/05/17 07:25:09;;;;;;;0.00;0.00;;;;;;;;;;4973977;28;20142;-81
2023/05/17 07:27:35;;;;;;;0.00;0.00;;;;;;;;;;4975408;28;20047;-80
2023/05/17 07:30:02;;;;;;;0.00;0.00;;;;;;;;;;4974906;28;20074;-81
2023/05/17 07:32:28;;;;;;;0.00;0.00;;;;;;;;;;4975345;28;20043;-81
2023/05/17 07:34:55;;;;;;;0.00;0.00;;;;;;;;;;4974751;28;20049;-81
2023/05/17 07:37:21;;;;;;;0.00;0.00;;;;;;;;;;4972672;28;20043;-81
2023/05/17 07:39:47;;;;;;;0.00;0.00;;;;;;;;;;4973596;28;20109;-81
2023/05/17 07:42:13;;;;;;;0.00;0.00;;;;;;;;;;4973456;28;20042;-81
2023/05/17 07:44:39;;;;;;;0.00;0.00;;;;;;;;;;4973342;28;20046;-81
2023/05/17 07:47:05;;;;;;;0.00;0.00;;;;;;;;;;4973399;28;20050;-82
2023/05/17 07:49:31;;;;;;;0.00;0.00;;;;;;;;;;4974359;28;20043;-81
2023/05/17 07:51:57;;;;;;;0.00;0.00;;;;;;;;;;4973350;28;20117;-81
2023/05/17 07:54:24;;;;;;;0.00;0.00;;;;;;;;;;4973346;28;20497;-81
2023/05/17 07:56:51;;;;;;;0.00;0.00;;;;;;;;;;4974507;28;20071;-82
2023/05/17 07:59:18;;;;;;;0.05;0.00;;;;;;;;;;4974589;28;20053;-81
2023/05/17 08:01:43;;;;;;;0.00;0.00;;;;;;;;;;4974451;28;20049;-81
2023/05/17 08:04:10;;;;;;;0.00;0.00;;;;;;;;;;4973139;28;20050;-81
2023/05/17 08:06:36;;;;;;;0.00;0.00;;;;;;;;;;4972814;28;20118;-81
2023/05/17 08:09:03;;;;;;;0.00;0.00;;;;;;;;;;4973000;28;20243;-81
2023/05/17 08:11:30;;;;;;;0.00;0.00;;;;;;;;;;4973028;28;20109;-82
2023/05/17 08:13:56;;;;;;;0.00;0.00;;;;;;;;;;4974397;28;20061;-81
2023/05/17 08:16:22;;;;;;;0.00;0.00;;;;;;;;;;4974074;28;20043;-80
2023/05/17 08:18:48;;;;;;;0.00;0.00;;;;;;;;;;4974421;28;20046;-81
2023/05/17 08:21:14;;;;;;;0.00;0.00;;;;;;;;;;4974033;28;20097;-81
2023/05/17 08:23:40;;;;;;;0.00;0.00;;;;;;;;;;4974638;28;20091;-82
2023/05/17 08:26:06;;;;;;;0.00;0.00;;;;;;;;;;4972549;28;20108;-81
2023/05/17 08:28:33;;;;;;;0.00;0.00;;;;;;;;;;4972713;28;20085;-83
2023/05/17 08:30:59;;;;;;;0.00;0.00;;;;;;;;;;4973738;28;20097;-83
2023/05/17 08:33:26;;;;;;;0.00;0.00;;;;;;;;;;4974110;28;20074;-82
2023/05/17 08:35:54;;;;;;;0.00;0.00;;;;;;;;;;4972430;28;20209;-81
2023/05/17 08:38:20;;;;;;;0.00;0.00;;;;;;;;;;4972803;28;20055;-81
2023/05/17 08:40:53;;;;;;;0.00;0.00;;;;;;;;;;4972155;28;20049;-82
2023/05/17 08:43:20;;;;;;;0.00;0.00;;;;;;;;;;4973952;28;20157;-82
2023/05/17 08:45:48;;;;;;;0.00;0.00;;;;;;;;;;4972274;28;20042;-81
2023/05/17 08:48:16;;;;;;;0.00;0.00;;;;;;;;;;4972397;28;20121;-81
2023/05/17 08:50:42;;;;;;;0.00;0.00;;;;;;;;;;4973568;28;20147;-81
2023/05/17 08:53:09;;;;;;;0.00;0.00;;;;;;;;;;4972740;28;20430;-81
2023/05/17 08:55:36;;;;;;;0.00;0.00;;;;;;;;;;4972240;28;20043;-82
2023/05/17 08:58:03;;;;;;;0.00;0.00;;;;;;;;;;4956221;28;20558;-82
2023/05/17 09:00:32;;;;;;;0.00;0.00;;;;;;;;;;4972126;28;20074;-82
2023/05/17 09:02:58;;;;;;;0.00;0.00;;;;;;;;;;4972076;28;20113;-82
2023/05/17 09:05:24;;;;;;;0.00;0.00;;;;;;;;;;4973535;28;20113;-82
2023/05/17 09:07:51;;;;;;;0.00;0.00;;;;;;;;;;4973646;28;20046;-82
2023/05/17 09:10:17;;;;;;;0.00;0.00;;;;;;;;;;4973505;28;20039;-82
2023/05/17 09:12:44;;;;;;;0.00;0.00;;;;;;;;;;4973371;28;20050;-82
2023/05/17 09:15:17;;;;;;;0.00;0.00;;;;;;;;;;4972578;28;20042;-82
2023/05/17 09:17:43;;;;;;;0.00;0.00;;;;;;;;;;4973182;28;20483;-82
2023/05/17 09:20:10;;;;;;;0.00;0.00;;;;;;;;;;4972241;28;20133;-82
2023/05/17 09:22:36;;;;;;;0.00;0.00;;;;;;;;;;4971998;28;20043;-82
2023/05/17 09:25:03;;;;;;;0.00;0.00;;;;;;;;;;4973489;28;20035;-82
2023/05/17 09:27:30;;;;;;;0.00;0.00;;;;;;;;;;4972075;28;20043;-82
2023/05/17 09:29:57;;;;;;;0.00;0.00;;;;;;;;;;4973422;28;20466;-82
2023/05/17 09:32:27;;;;;;;0.00;0.00;;;;;;;;;;4973779;28;20082;-82
2023/05/17 09:34:55;;;;;;;0.00;0.00;;;;;;;;;;4974088;28;20050;-82
2023/05/17 09:37:21;;;;;;;0.00;0.00;;;;;;;;;;4973373;28;20078;-82
2023/05/17 09:39:47;;;;;;;0.00;0.00;;;;;;;;;;4973393;28;20053;-82
2023/05/17 09:42:13;;;;;;;0.00;0.00;;;;;;;;;;4973176;28;20102;-82
2023/05/17 09:44:53;;;;;;;0.00;0.00;;;;;;;;;;4973456;28;20470;-82
2023/05/17 09:47:27;;;;;;;0.00;0.00;;;;;;;;;;4972120;28;20043;-82
2023/05/17 09:49:53;;;;;;;0.70;0.15;;;;;;;;;;4972293;28;20054;-83
2023/05/17 09:52:20;;;;;;;0.00;0.00;;;;;;;;;;4972141;28;20129;-82
2023/05/17 09:54:56;;;;;;;0.00;0.00;;;;;;;;;;4973627;28;20050;-82
2023/05/17 09:57:22;;;;;;;0.00;0.00;;;;;;;;;;4972047;28;20609;-82
2023/05/17 09:59:49;;;;;;;0.00;0.00;;;;;;;;;;4972210;28;20402;-82
2023/05/17 10:02:19;;;;;;;0.00;0.00;;;;;;;;;;4977157;28;20042;-82
2023/05/17 10:04:46;;;;;;;0.00;0.00;;;;;;;;;;4977262;28;20055;-81
2023/05/17 10:07:13;;;;;;;0.00;0.00;;;;;;;;;;4977028;28;20047;-82
2023/05/17 10:09:39;;;;;;;0.00;0.00;;;;;;;;;;4976291;28;20039;-82
2023/05/17 10:12:09;;;;;;;0.00;0.00;;;;;;;;;;4975393;28;20329;-81
2023/05/17 10:14:35;;;;;;;0.00;0.00;;;;;;;;;;4959378;28;20043;-82
2023/05/17 10:17:01;;;;;;;0.00;0.00;;;;;;;;;;4975273;28;20046;-82
2023/05/17 10:19:28;;;;;;;0.00;0.00;;;;;;;;;;4975580;28;20054;-81
2023/05/17 10:21:56;;;;;;;0.00;0.00;;;;;;;;;;4976357;28;20050;-82
2023/05/17 10:24:22;;;;;;;0.00;0.00;;;;;;;;;;4975485;28;20087;-82
2023/05/17 10:26:51;;;;;;;0.00;0.00;;;;;;;;;;4975167;28;20158;-81
2023/05/17 10:29:19;;;;;;;0.00;0.00;;;;;;;;;;4976686;28;20034;-82
2023/05/17 10:31:46;;;;;;;0.00;0.00;;;;;;;;;;4975213;28;20470;-82
2023/05/17 10:34:15;;;;;;;0.00;0.00;;;;;;;;;;4976541;28;20049;-82
2023/05/17 10:36:42;;;;;;;0.00;0.00;;;;;;;;;;4975131;28;20047;-82
2023/05/17 10:39:09;;;;;;;0.00;0.00;;;;;;;;;;4959081;28;20073;-81
2023/05/17 10:41:36;;;;;;;0.00;0.00;;;;;;;;;;4974729;28;20047;-82
2023/05/17 10:44:03;;;;;;;0.00;0.00;;;;;;;;;;4976606;28;20576;-86
2023/05/17 10:46:30;;;;;;;0.00;0.00;;;;;;;;;;4974817;28;20131;-83
2023/05/17 10:48:57;;;;;;;0.00;0.00;;;;;;;;;;4976252;28;20385;-82
2023/05/17 10:51:24;;;;;;;0.00;0.00;;;;;;;;;;4974728;28;20129;-82
2023/05/17 10:54:10;;;;;;;0.00;0.00;;;;;;;;;;4975915;28;20046;-83
2023/05/17 10:56:39;;;;;;;0.00;0.00;;;;;;;;;;4975947;28;20070;-82
2023/05/17 10:59:16;;;;;;;0.00;0.00;;;;;;;;;;4975704;28;20450;-83
2023/05/17 11:02:02;;;;;;;0.00;0.00;;;;;;;;;;4975582;28;20082;-82
2023/05/17 11:04:32;;;;;;;0.00;0.00;;;;;;;;;;4975823;28;20518;-82
2023/05/17 11:07:17;;;;;;;0.00;0.00;;;;;;;;;;4974695;28;20186;-82
2023/05/17 11:10:06;;;;;;;0.28;0.28;;;;;;;;;;4974428;28;20035;-82
2023/05/17 11:12:48;;;;;;;0.00;0.00;;;;;;;;;;4975589;28;20189;-83
2023/05/17 11:15:15;;;;;;;0.00;0.00;;;;;;;;;;4975801;28;20443;-83
2023/05/17 11:17:53;;;;;;;0.00;0.00;;;;;;;;;;4975434;28;20358;-82
2023/05/17 11:20:25;;;;;;;0.00;0.00;;;;;;;;;;4975329;28;20433;-82
2023/05/17 11:22:58;;;;;;;0.00;0.00;;;;;;;;;;4975501;28;20057;-82
2023/05/17 11:25:27;;;;;;;0.00;0.00;;;;;;;;;;4975451;28;20420;-82
2023/05/17 11:27:53;;;;;;;0.00;0.00;;;;;;;;;;4973893;28;20114;-81
2023/05/17 11:30:27;;;;;;;0.00;0.00;;;;;;;;;;4974015;28;20081;-81
2023/05/17 11:32:54;;;;;;;0.00;0.00;;;;;;;;;;4975200;28;20058;-82
2023/05/17 11:35:23;;;;;;;0.00;0.00;;;;;;;;;;4975445;28;20050;-81
2023/05/17 11:37:51;;;;;;;0.00;0.00;;;;;;;;;;4973821;28;20046;-80
2023/05/17 11:40:24;;;;;;;0.00;0.00;;;;;;;;;;4975230;28;20505;-81
2023/05/17 11:42:50;;;;;;;0.00;0.00;;;;;;;;;;4973906;28;20085;-81
2023/05/17 11:45:17;;;;;;;0.00;0.00;;;;;;;;;;4974524;28;20058;-80
2023/05/17 11:47:47;;;;;;;0.35;0.28;;;;;;;;;;4974605;28;20049;-81
2023/05/17 11:50:15;;;;;;;0.05;0.05;;;;;;;;;;4973676;28;20043;-81
2023/05/17 11:52:40;;;;;;;0.00;0.00;;;;;;;;;;4974637;28;20414;-81
2023/05/17 11:55:07;;;;;;;0.00;0.00;;;;;;;;;;4973712;28;20038;-81
2023/05/17 11:57:33;;;;;;;0.00;0.00;;;;;;;;;;4973530;28;20051;-81
2023/05/17 12:00:00;;;;;;;0.00;0.00;;;;;;;;;;4974551;28;20097;-81
2023/05/17 12:02:30;;;;;;;0.00;0.00;;;;;;;;;;4987931;28;20133;-81
2023/05/17 12:04:56;;;;;;;0.00;0.00;;;;;;;;;;4992777;28;20058;-81
2023/05/17 12:07:23;;;;;;;0.13;0.00;;;;;;;;;;4993970;28;20552;-81
2023/05/17 12:09:49;;;;;;;0.00;0.00;;;;;;;;;;4993988;28;20494;-81
2023/05/17 12:12:16;;;;;;;0.00;0.00;;;;;;;;;;4990217;28;20050;-81
2023/05/17 12:14:46;;;;;;;0.00;0.00;;;;;;;;;;4994131;28;20054;-81
2023/05/17 12:17:16;;;;;;;0.00;0.00;;;;;;;;;;4976459;28;20042;-80
2023/05/17 12:19:42;;;;;;;0.00;0.00;;;;;;;;;;4992777;28;20375;-81
2023/05/17 12:22:12;;;;;;;0.00;0.00;;;;;;;;;;4992735;28;20038;-80
2023/05/17 12:24:39;;;;;;;0.00;0.00;;;;;;;;;;4993322;28;20053;-82
2023/05/17 12:27:06;;;;;;;0.00;0.00;;;;;;;;;;4993612;28;20038;-81
2023/05/17 12:29:32;;;;;;;0.00;0.00;;;;;;;;;;4993569;28;20039;-81
2023/05/17 12:31:59;;;;;;;0.00;0.00;;;;;;;;;;4992516;28;20049;-80
2023/05/17 12:34:27;;;;;;;0.00;0.00;;;;;;;;;;4993646;28;20042;-80
2023/05/17 12:36:53;;;;;;;0.00;0.00;;;;;;;;;;4993849;28;20049;-81
2023/05/17 12:39:22;;;;;;;0.00;0.00;;;;;;;;;;4993284;28;20386;-82
2023/05/17 12:41:50;;;;;;;0.00;0.00;;;;;;;;;;4992211;28;20402;-81
2023/05/17 12:44:16;;;;;;;0.00;0.00;;;;;;;;;;4992045;28;20057;-81
2023/05/17 12:46:43;;;;;;;0.00;0.00;;;;;;;;;;4993750;28;20078;-81
2023/05/17 12:49:10;;;;;;;0.00;0.00;;;;;;;;;;4993269;28;20393;-81
2023/05/17 12:51:45;;;;;;;0.17;0.08;;;;;;;;;;4992317;28;20042;-81
2023/05/17 12:54:12;;;;;;;0.00;0.00;;;;;;;;;;4992302;28;20122;-81
2023/05/17 12:56:41;;;;;;;0.20;0.08;;;;;;;;;;4993298;28;20473;-81
2023/05/17 12:59:12;;;;;;;0.00;0.00;;;;;;;;;;4992063;28;20051;-81
2023/05/17 13:01:40;;;;;;;0.00;0.00;;;;;;;;;;4992335;28;20148;-81
2023/05/17 13:04:06;;;;;;;0.00;0.00;;;;;;;;;;4992852;28;20066;-81
2023/05/17 13:06:51;;;;;;;0.00;0.00;;;;;;;;;;4993275;28;20394;-81
2023/05/17 13:09:18;;;;;;;0.00;0.00;;;;;;;;;;4993058;28;20041;-81
2023/05/17 13:11:49;;;;;;;0.00;0.00;;;;;;;;;;4991905;28;20170;-81
2023/05/17 13:14:32;;;;;;;0.00;0.00;;;;;;;;;;4991730;28;20054;-81
2023/05/17 13:16:58;;;;;;;0.00;0.00;;;;;;;;;;4991946;28;20053;-81
2023/05/17 13:19:24;;;;;;;0.00;0.00;;;;;;;;;;4991875;28;20042;-81
2023/05/17 13:21:50;;;;;;;0.00;0.00;;;;;;;;;;4991748;28;20517;-81
2023/05/17 13:24:16;;;;;;;0.00;0.00;;;;;;;;;;4992992;28;20038;-81
2023/05/17 13:26:41;;;;;;;0.00;0.00;;;;;;;;;;4993078;28;20046;-81
2023/05/17 13:29:07;;;;;;;0.15;0.15;;;;;;;;;;4992520;28;20038;-81
2023/05/17 13:31:33;;;;;;;0.00;0.00;;;;;;;;;;4991477;28;20580;-81
2023/05/17 13:34:00;;;;;;;0.00;0.00;;;;;;;;;;4975326;28;20169;-81
2023/05/17 13:36:25;;;;;;;0.00;0.00;;;;;;;;;;4995858;28;20406;-82
2023/05/17 13:38:51;;;;;;;0.00;0.00;;;;;;;;;;4995238;28;20046;-81
2023/05/17 13:41:17;;;;;;;0.00;0.00;;;;;;;;;;4995489;28;20081;-81
2023/05/17 13:43:43;;;;;;;0.00;0.00;;;;;;;;;;4995351;28;20490;-82
2023/05/17 13:46:10;;;;;;;0.00;0.00;;;;;;;;;;4979147;28;20066;-81
2023/05/17 13:48:36;;;;;;;0.00;0.00;;;;;;;;;;4996404;28;20047;-81
2023/05/17 13:51:02;;;;;;;0.00;0.00;;;;;;;;;;4995454;28;20068;-82
2023/05/17 13:53:28;;;;;;;0.00;0.00;;;;;;;;;;4996503;28;20249;-81
2023/05/17 13:55:54;;;;;;;0.00;0.00;;;;;;;;;;4996574;28;20194;-82
2023/05/17 13:58:20;;;;;;;0.00;0.00;;;;;;;;;;4994933;28;20049;-82
2023/05/17 14:00:46;;;;;;;0.00;0.00;;;;;;;;;;4994938;28;20450;-81
2023/05/17 14:03:13;;;;;;;0.00;0.00;;;;;;;;;;4996256;28;20046;-82
2023/05/17 14:05:39;;;;;;;0.00;0.00;;;;;;;;;;4978523;28;20454;-81
2023/05/17 14:08:06;;;;;;;0.00;0.00;;;;;;;;;;4995059;28;20082;-81
2023/05/17 14:10:32;;;;;;;0.00;0.00;;;;;;;;;;4996070;28;20047;-81
2023/05/17 14:12:58;;;;;;;0.00;0.00;;;;;;;;;;4996324;28;20122;-82
2023/05/17 14:15:26;;;;;;;0.00;0.00;;;;;;;;;;4994756;28;20450;-81
2023/05/17 14:17:52;;;;;;;0.00;0.00;;;;;;;;;;4996250;28;20389;-82
2023/05/17 14:20:18;;;;;;;0.00;0.00;;;;;;;;;;4996195;28;20039;-82
2023/05/17 14:22:45;;;;;;;0.00;0.00;;;;;;;;;;4994826;28;20419;-81
2023/05/17 14:25:11;;;;;;;0.00;0.00;;;;;;;;;;4995920;28;20044;-81
2023/05/17 14:27:37;;;;;;;0.00;0.00;;;;;;;;;;4996023;28;20035;-82
2023/05/17 14:30:04;;;;;;;0.00;0.00;;;;;;;;;;4995677;28;20100;-81
2023/05/17 14:32:30;;;;;;;0.00;0.00;;;;;;;;;;4996202;28;20038;-81
2023/05/17 14:34:56;;;;;;;0.00;0.00;;;;;;;;;;4995964;28;20046;-81
2023/05/17 14:37:22;;;;;;;0.00;0.00;;;;;;;;;;4996034;28;20112;-81
2023/05/17 14:39:48;;;;;;;0.00;0.00;;;;;;;;;;4981738;28;20161;-81
2023/05/17 14:42:14;;;;;;;0.00;0.00;;;;;;;;;;4976209;28;20043;-81